sensor_id;sensor_type;location;lat;lon;timestamp;temperature;humidity
25937;DHT22;13733;51.178;4.450;2023-10-19T00:01:57;16.90;99.90
25937;DHT22;13733;51.178;4.450;2023-10-19T00:04:24;16.90;99.90
25937;DHT22;13733;51.178;4.450;2023-10-19T00:06:51;16.90;99.90
25937;DHT22;13733;51.178;4.450;2023-10-19T00:09:18;16.90;99.90
25937;DHT22;13733;51.178;4.450;2023-10-19T00:11:46;16.80;99.90
25937;DHT22;13733;51.178;4.450;2023-10-19T00:14:12;16.80;99.90
25937;DHT22;13733;51.178;4.450;2023-10-19T00:16:44;16.70;99.90
25937;DHT22;13733;51.178;4.450;2023-10-19T00:19:16;16.60;99.90
25937;DHT22;13733;51.178;4.450;2023-10-19T00:21:45;16.70;99.90
25937;DHT22;13733;51.178;4.450;2023-10-19T00:24:20;16.70;99.90
25937;DHT22;13733;51.178;4.450;2023-10-19T00:26:49;16.70;99.90
25937;DHT22;13733;51.178;4.450;2023-10-19T00:29:19;16.80;99.90
25937;DHT22;13733;51.178;4.450;2023-10-19T00:31:58;16.80;99.40
25937;DHT22;13733;51.178;4.450;2023-10-19T00:34:24;16.90;98.70
25937;DHT22;13733;51.178;4.450;2023-10-19T00:36:51;16.90;98.00
25937;DHT22;13733;51.178;4.450;2023-10-19T00:39:17;16.80;98.40
25937;DHT22;13733;51.178;4.450;2023-10-19T00:41:47;16.70;99.90
25937;DHT22;13733;51.178;4.450;2023-10-19T00:44:14;16.80;99.30
25937;DHT22;13733;51.178;4.450;2023-10-19T00:47:01;16.80;98.80
25937;DHT22;13733;51.178;4.450;2023-10-19T00:49:33;16.70;98.80
25937;DHT22;13733;51.178;4.450;2023-10-19T00:52:00;16.80;99.30
25937;DHT22;13733;51.178;4.450;2023-10-19T00:54:40;17.00;97.60
25937;DHT22;13733;51.178;4.450;2023-10-19T00:57:17;16.90;97.80
25937;DHT22;13733;51.178;4.450;2023-10-19T00:59:58;16.80;98.80
25937;DHT22;13733;51.178;4.450;2023-10-19T01:02:40;16.80;98.60
25937;DHT22;13733;51.178;4.450;2023-10-19T01:05:12;16.80;98.40
25937;DHT22;13733;51.178;4.450;2023-10-19T01:07:40;16.90;97.40
25937;DHT22;13733;51.178;4.450;2023-10-19T01:10:07;17.00;96.50
25937;DHT22;13733;51.178;4.450;2023-10-19T01:12:34;17.10;95.20
25937;DHT22;13733;51.178;4.450;2023-10-19T01:17:56;16.90;96.90
25937;DHT22;13733;51.178;4.450;2023-10-19T01:20:27;16.80;97.70
25937;DHT22;13733;51.178;4.450;2023-10-19T01:23:04;16.80;97.20
25937;DHT22;13733;51.178;4.450;2023-10-19T01:25:42;16.70;98.60
25937;DHT22;13733;51.178;4.450;2023-10-19T01:28:31;16.70;99.20
25937;DHT22;13733;51.178;4.450;2023-10-19T01:31:11;16.70;99.10
25937;DHT22;13733;51.178;4.450;2023-10-19T01:34:01;16.80;98.10
25937;DHT22;13733;51.178;4.450;2023-10-19T01:36:30;17.10;94.90
25937;DHT22;13733;51.178;4.450;2023-10-19T01:39:01;16.90;94.50
25937;DHT22;13733;51.178;4.450;2023-10-19T01:41:28;16.70;96.00
25937;DHT22;13733;51.178;4.450;2023-10-19T01:43:58;16.80;95.30
25937;DHT22;13733;51.178;4.450;2023-10-19T01:46:30;16.80;92.60
25937;DHT22;13733;51.178;4.450;2023-10-19T01:49:04;16.70;92.10
25937;DHT22;13733;51.178;4.450;2023-10-19T01:51:32;16.80;92.30
25937;DHT22;13733;51.178;4.450;2023-10-19T01:53:59;16.80;91.50
25937;DHT22;13733;51.178;4.450;2023-10-19T01:56:28;16.80;92.10
25937;DHT22;13733;51.178;4.450;2023-10-19T01:58:55;16.80;92.10
25937;DHT22;13733;51.178;4.450;2023-10-19T02:01:20;16.80;92.30
25937;DHT22;13733;51.178;4.450;2023-10-19T02:03:56;16.80;92.60
25937;DHT22;13733;51.178;4.450;2023-10-19T02:06:26;16.80;92.00
25937;DHT22;13733;51.178;4.450;2023-10-19T02:09:00;16.70;92.80
25937;DHT22;13733;51.178;4.450;2023-10-19T02:11:28;16.60;94.40
25937;DHT22;13733;51.178;4.450;2023-10-19T02:13:56;16.70;94.80
25937;DHT22;13733;51.178;4.450;2023-10-19T02:16:27;16.70;94.10
25937;DHT22;13733;51.178;4.450;2023-10-19T02:18:56;16.70;93.70
25937;DHT22;13733;51.178;4.450;2023-10-19T02:21:22;16.60;94.20
25937;DHT22;13733;51.178;4.450;2023-10-19T02:23:49;16.60;94.90
25937;DHT22;13733;51.178;4.450;2023-10-19T02:26:20;16.60;94.70
25937;DHT22;13733;51.178;4.450;2023-10-19T02:28:48;16.70;94.40
25937;DHT22;13733;51.178;4.450;2023-10-19T02:31:22;16.70;94.00
25937;DHT22;13733;51.178;4.450;2023-10-19T02:33:49;16.80;93.60
25937;DHT22;13733;51.178;4.450;2023-10-19T02:36:25;16.70;95.00
25937;DHT22;13733;51.178;4.450;2023-10-19T02:38:58;16.60;95.80
25937;DHT22;13733;51.178;4.450;2023-10-19T02:41:35;16.80;94.10
25937;DHT22;13733;51.178;4.450;2023-10-19T02:44:14;16.70;94.80
25937;DHT22;13733;51.178;4.450;2023-10-19T02:46:54;16.50;96.70
25937;DHT22;13733;51.178;4.450;2023-10-19T02:49:31;16.40;96.60
25937;DHT22;13733;51.178;4.450;2023-10-19T02:51:57;16.40;96.40
25937;DHT22;13733;51.178;4.450;2023-10-19T02:54:29;16.20;98.00
25937;DHT22;13733;51.178;4.450;2023-10-19T02:56:58;16.10;98.50
25937;DHT22;13733;51.178;4.450;2023-10-19T02:59:27;16.10;98.80
25937;DHT22;13733;51.178;4.450;2023-10-19T03:01:58;16.00;99.50
25937;DHT22;13733;51.178;4.450;2023-10-19T03:04:36;16.00;99.90
25937;DHT22;13733;51.178;4.450;2023-10-19T03:07:06;16.00;99.70
25937;DHT22;13733;51.178;4.450;2023-10-19T03:09:33;16.10;98.70
25937;DHT22;13733;51.178;4.450;2023-10-19T03:12:02;16.10;98.90
25937;DHT22;13733;51.178;4.450;2023-10-19T03:14:31;16.00;99.30
25937;DHT22;13733;51.178;4.450;2023-10-19T03:16:58;15.90;99.90
25937;DHT22;13733;51.178;4.450;2023-10-19T03:19:26;16.10;99.00
25937;DHT22;13733;51.178;4.450;2023-10-19T03:21:52;15.90;99.40
25937;DHT22;13733;51.178;4.450;2023-10-19T03:24:19;15.80;99.90
25937;DHT22;13733;51.178;4.450;2023-10-19T03:27:05;15.70;99.90
25937;DHT22;13733;51.178;4.450;2023-10-19T03:29:39;15.80;99.90
25937;DHT22;13733;51.178;4.450;2023-10-19T03:32:05;15.80;99.90
25937;DHT22;13733;51.178;4.450;2023-10-19T03:34:32;15.70;99.90
25937;DHT22;13733;51.178;4.450;2023-10-19T03:36:58;15.60;99.90
25937;DHT22;13733;51.178;4.450;2023-10-19T03:39:38;15.60;99.90
25937;DHT22;13733;51.178;4.450;2023-10-19T03:42:05;15.60;99.90
25937;DHT22;13733;51.178;4.450;2023-10-19T03:44:34;15.60;99.90
25937;DHT22;13733;51.178;4.450;2023-10-19T03:47:16;15.60;99.90
25937;DHT22;13733;51.178;4.450;2023-10-19T03:49:47;15.70;99.90
25937;DHT22;13733;51.178;4.450;2023-10-19T03:52:13;15.90;99.90
25937;DHT22;13733;51.178;4.450;2023-10-19T03:54:40;15.90;99.90
25937;DHT22;13733;51.178;4.450;2023-10-19T03:57:08;15.90;99.90
25937;DHT22;13733;51.178;4.450;2023-10-19T03:59:38;16.00;99.90
25937;DHT22;13733;51.178;4.450;2023-10-19T04:02:04;16.00;99.90
25937;DHT22;13733;51.178;4.450;2023-10-19T04:04:40;16.00;99.90
25937;DHT22;13733;51.178;4.450;2023-10-19T04:07:09;16.00;99.90
25937;DHT22;13733;51.178;4.450;2023-10-19T04:09:52;16.00;99.90
25937;DHT22;13733;51.178;4.450;2023-10-19T04:12:26;16.00;99.90
25937;DHT22;13733;51.178;4.450;2023-10-19T04:14:55;16.00;99.90
25937;DHT22;13733;51.178;4.450;2023-10-19T04:17:22;16.10;99.90
25937;DHT22;13733;51.178;4.450;2023-10-19T04:19:50;16.00;99.90
25937;DHT22;13733;51.178;4.450;2023-10-19T04:22:17;16.00;99.90
25937;DHT22;13733;51.178;4.450;2023-10-19T04:24:50;16.10;99.90
25937;DHT22;13733;51.178;4.450;2023-10-19T04:27:16;16.10;99.90
25937;DHT22;13733;51.178;4.450;2023-10-19T04:29:42;16.10;99.60
25937;DHT22;13733;51.178;4.450;2023-10-19T04:32:09;16.20;99.60
25937;DHT22;13733;51.178;4.450;2023-10-19T04:34:35;16.10;99.70
25937;DHT22;13733;51.178;4.450;2023-10-19T04:37:04;16.10;99.70
25937;DHT22;13733;51.178;4.450;2023-10-19T04:39:32;16.10;99.90
25937;DHT22;13733;51.178;4.450;2023-10-19T04:42:00;16.30;99.00
25937;DHT22;13733;51.178;4.450;2023-10-19T04:44:26;16.20;98.70
25937;DHT22;13733;51.178;4.450;2023-10-19T04:46:51;16.10;99.50
25937;DHT22;13733;51.178;4.450;2023-10-19T04:49:18;16.10;99.90
25937;DHT22;13733;51.178;4.450;2023-10-19T04:51:44;16.10;99.90
25937;DHT22;13733;51.178;4.450;2023-10-19T04:54:10;16.00;99.90
25937;DHT22;13733;51.178;4.450;2023-10-19T04:56:36;16.10;99.90
25937;DHT22;13733;51.178;4.450;2023-10-19T04:59:02;16.00;99.90
25937;DHT22;13733;51.178;4.450;2023-10-19T05:01:28;16.10;99.90
25937;DHT22;13733;51.178;4.450;2023-10-19T05:03:54;16.10;99.90
25937;DHT22;13733;51.178;4.450;2023-10-19T05:06:20;16.10;99.90
25937;DHT22;13733;51.178;4.450;2023-10-19T05:08:47;16.00;99.90
25937;DHT22;13733;51.178;4.450;2023-10-19T05:11:13;16.10;99.90
25937;DHT22;13733;51.178;4.450;2023-10-19T05:13:39;16.00;99.90
25937;DHT22;13733;51.178;4.450;2023-10-19T05:16:05;16.10;99.90
25937;DHT22;13733;51.178;4.450;2023-10-19T05:18:31;16.00;99.90
25937;DHT22;13733;51.178;4.450;2023-10-19T05:20:57;16.10;99.90
25937;DHT22;13733;51.178;4.450;2023-10-19T05:23:24;16.10;99.90
25937;DHT22;13733;51.178;4.450;2023-10-19T05:25:54;16.20;99.90
25937;DHT22;13733;51.178;4.450;2023-10-19T05:28:25;16.20;99.90
25937;DHT22;13733;51.178;4.450;2023-10-19T05:30:51;16.10;99.90
25937;DHT22;13733;51.178;4.450;2023-10-19T05:33:17;16.00;99.90
25937;DHT22;13733;51.178;4.450;2023-10-19T05:35:50;16.10;99.90
25937;DHT22;13733;51.178;4.450;2023-10-19T05:38:17;16.10;99.90
25937;DHT22;13733;51.178;4.450;2023-10-19T05:40:45;16.10;99.90
25937;DHT22;13733;51.178;4.450;2023-10-19T05:43:11;16.20;99.90
25937;DHT22;13733;51.178;4.450;2023-10-19T05:45:40;16.30;99.90
25937;DHT22;13733;51.178;4.450;2023-10-19T05:48:06;16.30;99.90
25937;DHT22;13733;51.178;4.450;2023-10-19T05:50:35;16.20;99.90
25937;DHT22;13733;51.178;4.450;2023-10-19T05:53:03;16.30;99.90
25937;DHT22;13733;51.178;4.450;2023-10-19T05:55:29;16.20;99.90
25937;DHT22;13733;51.178;4.450;2023-10-19T05:57:55;16.10;99.90
25937;DHT22;13733;51.178;4.450;2023-10-19T06:00:21;16.20;99.90
25937;DHT22;13733;51.178;4.450;2023-10-19T06:02:51;16.20;99.90
25937;DHT22;13733;51.178;4.450;2023-10-19T06:05:18;16.20;99.90
25937;DHT22;13733;51.178;4.450;2023-10-19T06:07:46;16.20;99.90
25937;DHT22;13733;51.178;4.450;2023-10-19T06:10:16;16.20;99.90
25937;DHT22;13733;51.178;4.450;2023-10-19T06:12:43;16.10;99.90
25937;DHT22;13733;51.178;4.450;2023-10-19T06:15:10;16.20;99.90
25937;DHT22;13733;51.178;4.450;2023-10-19T06:17:38;16.20;99.90
25937;DHT22;13733;51.178;4.450;2023-10-19T06:20:05;16.20;99.90
25937;DHT22;13733;51.178;4.450;2023-10-19T06:22:34;16.30;99.90
25937;DHT22;13733;51.178;4.450;2023-10-19T06:25:01;16.30;99.90
25937;DHT22;13733;51.178;4.450;2023-10-19T06:27:28;16.20;99.90
25937;DHT22;13733;51.178;4.450;2023-10-19T06:29:56;16.20;99.90
25937;DHT22;13733;51.178;4.450;2023-10-19T06:32:22;16.20;99.90
25937;DHT22;13733;51.178;4.450;2023-10-19T06:34:47;16.30;99.90
25937;DHT22;13733;51.178;4.450;2023-10-19T06:37:13;16.40;99.90
25937;DHT22;13733;51.178;4.450;2023-10-19T06:39:39;16.40;99.90
25937;DHT22;13733;51.178;4.450;2023-10-19T06:42:08;16.30;99.90
25937;DHT22;13733;51.178;4.450;2023-10-19T06:44:41;16.40;99.90
25937;DHT22;13733;51.178;4.450;2023-10-19T06:47:08;16.30;99.90
25937;DHT22;13733;51.178;4.450;2023-10-19T06:49:33;16.30;99.90
25937;DHT22;13733;51.178;4.450;2023-10-19T06:52:00;16.30;99.90
25937;DHT22;13733;51.178;4.450;2023-10-19T06:54:26;16.30;99.90
25937;DHT22;13733;51.178;4.450;2023-10-19T06:56:54;16.40;99.90
25937;DHT22;13733;51.178;4.450;2023-10-19T06:59:20;16.40;99.90
25937;DHT22;13733;51.178;4.450;2023-10-19T07:01:46;16.40;99.90
25937;DHT22;13733;51.178;4.450;2023-10-19T07:04:12;16.30;99.90
25937;DHT22;13733;51.178;4.450;2023-10-19T07:06:39;16.20;99.90
25937;DHT22;13733;51.178;4.450;2023-10-19T07:09:05;16.30;99.90
25937;DHT22;13733;51.178;4.450;2023-10-19T07:11:32;16.20;99.90
25937;DHT22;13733;51.178;4.450;2023-10-19T07:13:59;16.20;99.90
25937;DHT22;13733;51.178;4.450;2023-10-19T07:16:25;16.20;99.90
25937;DHT22;13733;51.178;4.450;2023-10-19T07:18:52;16.20;99.90
25937;DHT22;13733;51.178;4.450;2023-10-19T07:21:19;16.20;99.90
25937;DHT22;13733;51.178;4.450;2023-10-19T07:23:45;16.20;99.90
25937;DHT22;13733;51.178;4.450;2023-10-19T07:26:11;16.30;99.90
25937;DHT22;13733;51.178;4.450;2023-10-19T07:28:40;16.30;99.90
25937;DHT22;13733;51.178;4.450;2023-10-19T07:31:06;16.30;99.90
25937;DHT22;13733;51.178;4.450;2023-10-19T07:33:40;16.40;99.90
25937;DHT22;13733;51.178;4.450;2023-10-19T07:36:14;16.50;99.90
25937;DHT22;13733;51.178;4.450;2023-10-19T07:38:40;16.50;99.90
25937;DHT22;13733;51.178;4.450;2023-10-19T07:41:08;16.60;99.90
25937;DHT22;13733;51.178;4.450;2023-10-19T07:43:35;16.70;99.90
25937;DHT22;13733;51.178;4.450;2023-10-19T07:46:01;16.80;99.90
25937;DHT22;13733;51.178;4.450;2023-10-19T07:48:27;16.80;99.90
25937;DHT22;13733;51.178;4.450;2023-10-19T07:50:53;16.80;99.90
25937;DHT22;13733;51.178;4.450;2023-10-19T07:53:19;16.90;99.90
25937;DHT22;13733;51.178;4.450;2023-10-19T07:55:45;16.90;99.70
25937;DHT22;13733;51.178;4.450;2023-10-19T07:58:11;16.90;99.40
25937;DHT22;13733;51.178;4.450;2023-10-19T08:00:37;16.80;99.90
25937;DHT22;13733;51.178;4.450;2023-10-19T08:03:05;16.80;99.90
25937;DHT22;13733;51.178;4.450;2023-10-19T08:05:31;17.00;99.90
25937;DHT22;13733;51.178;4.450;2023-10-19T08:07:59;17.10;99.50
25937;DHT22;13733;51.178;4.450;2023-10-19T08:10:27;17.10;98.00
25937;DHT22;13733;51.178;4.450;2023-10-19T08:12:53;17.40;97.90
25937;DHT22;13733;51.178;4.450;2023-10-19T08:15:20;17.70;95.50
25937;DHT22;13733;51.178;4.450;2023-10-19T08:17:48;17.90;93.80
25937;DHT22;13733;51.178;4.450;2023-10-19T08:20:15;17.80;92.70
25937;DHT22;13733;51.178;4.450;2023-10-19T08:22:44;17.80;93.00
25937;DHT22;13733;51.178;4.450;2023-10-19T08:25:12;17.70;92.80
25937;DHT22;13733;51.178;4.450;2023-10-19T08:27:44;17.80;92.60
25937;DHT22;13733;51.178;4.450;2023-10-19T08:30:14;17.90;91.40
25937;DHT22;13733;51.178;4.450;2023-10-19T08:32:41;17.80;91.40
25937;DHT22;13733;51.178;4.450;2023-10-19T08:35:08;17.80;91.60
25937;DHT22;13733;51.178;4.450;2023-10-19T08:37:40;17.90;91.90
25937;DHT22;13733;51.178;4.450;2023-10-19T08:40:11;18.00;90.60
25937;DHT22;13733;51.178;4.450;2023-10-19T08:42:44;18.00;91.10
25937;DHT22;13733;51.178;4.450;2023-10-19T08:45:13;17.90;91.40
25937;DHT22;13733;51.178;4.450;2023-10-19T08:48:01;17.80;91.00
25937;DHT22;13733;51.178;4.450;2023-10-19T08:50:32;17.90;91.50
25937;DHT22;13733;51.178;4.450;2023-10-19T08:53:03;18.00;90.80
25937;DHT22;13733;51.178;4.450;2023-10-19T08:55:29;18.00;89.00
25937;DHT22;13733;51.178;4.450;2023-10-19T08:58:00;18.00;90.60
25937;DHT22;13733;51.178;4.450;2023-10-19T09:00:26;18.00;91.10
25937;DHT22;13733;51.178;4.450;2023-10-19T09:02:53;18.10;91.00
25937;DHT22;13733;51.178;4.450;2023-10-19T09:05:20;18.20;88.60
25937;DHT22;13733;51.178;4.450;2023-10-19T09:07:49;18.20;88.60
25937;DHT22;13733;51.178;4.450;2023-10-19T09:10:25;18.20;88.90
25937;DHT22;13733;51.178;4.450;2023-10-19T09:13:03;18.30;85.20
25937;DHT22;13733;51.178;4.450;2023-10-19T09:15:31;18.50;85.60
25937;DHT22;13733;51.178;4.450;2023-10-19T09:20:48;18.90;73.60
25937;DHT22;13733;51.178;4.450;2023-10-19T09:23:22;18.90;70.40
25937;DHT22;13733;51.178;4.450;2023-10-19T09:25:50;18.80;71.10
25937;DHT22;13733;51.178;4.450;2023-10-19T09:28:16;18.80;74.80
25937;DHT22;13733;51.178;4.450;2023-10-19T09:30:43;18.90;71.00
25937;DHT22;13733;51.178;4.450;2023-10-19T09:33:12;19.10;68.80
25937;DHT22;13733;51.178;4.450;2023-10-19T09:35:40;19.20;67.40
25937;DHT22;13733;51.178;4.450;2023-10-19T09:38:09;19.20;64.00
25937;DHT22;13733;51.178;4.450;2023-10-19T09:40:35;19.20;65.00
25937;DHT22;13733;51.178;4.450;2023-10-19T09:43:04;19.20;64.60
25937;DHT22;13733;51.178;4.450;2023-10-19T09:45:37;19.30;63.00
25937;DHT22;13733;51.178;4.450;2023-10-19T09:48:07;19.40;60.60
25937;DHT22;13733;51.178;4.450;2023-10-19T09:50:34;19.50;55.70
25937;DHT22;13733;51.178;4.450;2023-10-19T09:53:01;19.40;61.10
25937;DHT22;13733;51.178;4.450;2023-10-19T09:55:36;19.50;58.40
25937;DHT22;13733;51.178;4.450;2023-10-19T09:58:16;19.50;57.50
25937;DHT22;13733;51.178;4.450;2023-10-19T10:00:44;19.40;60.40
25937;DHT22;13733;51.178;4.450;2023-10-19T10:03:46;19.30;60.00
25937;DHT22;13733;51.178;4.450;2023-10-19T10:06:15;19.10;62.10
25937;DHT22;13733;51.178;4.450;2023-10-19T10:08:45;18.90;71.90
25937;DHT22;13733;51.178;4.450;2023-10-19T10:11:16;18.90;74.20
25937;DHT22;13733;51.178;4.450;2023-10-19T10:13:43;19.10;71.80
25937;DHT22;13733;51.178;4.450;2023-10-19T10:16:13;19.10;69.50
25937;DHT22;13733;51.178;4.450;2023-10-19T10:18:41;19.10;67.50
25937;DHT22;13733;51.178;4.450;2023-10-19T10:21:17;19.10;67.40
25937;DHT22;13733;51.178;4.450;2023-10-19T10:26:29;19.10;66.90
25937;DHT22;13733;51.178;4.450;2023-10-19T10:29:12;18.90;69.40
25937;DHT22;13733;51.178;4.450;2023-10-19T10:31:44;18.80;74.20
25937;DHT22;13733;51.178;4.450;2023-10-19T10:34:41;18.90;74.20
25937;DHT22;13733;51.178;4.450;2023-10-19T10:37:05;19.00;73.20
25937;DHT22;13733;51.178;4.450;2023-10-19T10:39:34;19.20;69.30
25937;DHT22;13733;51.178;4.450;2023-10-19T10:42:09;19.40;61.60
25937;DHT22;13733;51.178;4.450;2023-10-19T10:44:47;19.70;57.10
25937;DHT22;13733;51.178;4.450;2023-10-19T10:47:18;20.00;52.00
25937;DHT22;13733;51.178;4.450;2023-10-19T10:49:55;20.40;42.90
25937;DHT22;13733;51.178;4.450;2023-10-19T10:52:34;20.50;38.90
25937;DHT22;13733;51.178;4.450;2023-10-19T10:55:12;20.50;37.50
25937;DHT22;13733;51.178;4.450;2023-10-19T10:57:39;20.50;38.40
25937;DHT22;13733;51.178;4.450;2023-10-19T11:00:11;20.50;37.60
25937;DHT22;13733;51.178;4.450;2023-10-19T11:03:06;20.50;34.10
25937;DHT22;13733;51.178;4.450;2023-10-19T11:05:36;20.60;35.60
25937;DHT22;13733;51.178;4.450;2023-10-19T11:08:05;20.60;34.40
25937;DHT22;13733;51.178;4.450;2023-10-19T11:10:34;20.70;31.70
25937;DHT22;13733;51.178;4.450;2023-10-19T11:13:07;20.80;29.90
25937;DHT22;13733;51.178;4.450;2023-10-19T11:15:34;20.80;26.00
25937;DHT22;13733;51.178;4.450;2023-10-19T11:18:01;20.70;28.20
25937;DHT22;13733;51.178;4.450;2023-10-19T11:20:27;20.70;29.30
25937;DHT22;13733;51.178;4.450;2023-10-19T11:22:54;20.70;32.30
25937;DHT22;13733;51.178;4.450;2023-10-19T11:25:24;20.70;31.60
25937;DHT22;13733;51.178;4.450;2023-10-19T11:27:57;20.60;30.40
25937;DHT22;13733;51.178;4.450;2023-10-19T11:30:24;20.60;35.80
25937;DHT22;13733;51.178;4.450;2023-10-19T11:32:50;20.40;44.10
25937;DHT22;13733;51.178;4.450;2023-10-19T11:35:21;20.20;50.70
25937;DHT22;13733;51.178;4.450;2023-10-19T11:37:52;19.90;58.60
25937;DHT22;13733;51.178;4.450;2023-10-19T11:40:22;19.70;66.30
25937;DHT22;13733;51.178;4.450;2023-10-19T11:42:48;19.70;69.60
25937;DHT22;13733;51.178;4.450;2023-10-19T11:45:15;19.50;73.60
25937;DHT22;13733;51.178;4.450;2023-10-19T11:47:43;19.50;76.40
25937;DHT22;13733;51.178;4.450;2023-10-19T11:50:13;19.50;78.50
25937;DHT22;13733;51.178;4.450;2023-10-19T11:52:44;19.50;80.50
25937;DHT22;13733;51.178;4.450;2023-10-19T11:55:14;19.40;82.90
25937;DHT22;13733;51.178;4.450;2023-10-19T11:57:41;19.30;83.60
25937;DHT22;13733;51.178;4.450;2023-10-19T12:00:12;19.30;85.80
25937;DHT22;13733;51.178;4.450;2023-10-19T12:02:48;19.30;87.80
25937;DHT22;13733;51.178;4.450;2023-10-19T12:05:14;19.40;86.30
25937;DHT22;13733;51.178;4.450;2023-10-19T12:07:40;19.50;85.00
25937;DHT22;13733;51.178;4.450;2023-10-19T12:10:08;19.40;86.80
25937;DHT22;13733;51.178;4.450;2023-10-19T12:12:38;19.30;88.10
25937;DHT22;13733;51.178;4.450;2023-10-19T12:15:07;19.20;90.00
25937;DHT22;13733;51.178;4.450;2023-10-19T12:17:33;19.20;90.00
25937;DHT22;13733;51.178;4.450;2023-10-19T12:19:59;19.30;90.00
25937;DHT22;13733;51.178;4.450;2023-10-19T12:22:25;19.30;89.20
25937;DHT22;13733;51.178;4.450;2023-10-19T12:24:56;19.40;90.00
25937;DHT22;13733;51.178;4.450;2023-10-19T12:27:23;19.50;89.20
25937;DHT22;13733;51.178;4.450;2023-10-19T12:29:50;19.60;88.90
25937;DHT22;13733;51.178;4.450;2023-10-19T12:32:18;19.80;84.10
25937;DHT22;13733;51.178;4.450;2023-10-19T12:34:44;19.90;82.30
25937;DHT22;13733;51.178;4.450;2023-10-19T12:37:10;19.80;79.70
25937;DHT22;13733;51.178;4.450;2023-10-19T12:39:38;19.70;83.10
25937;DHT22;13733;51.178;4.450;2023-10-19T12:42:15;19.50;86.10
25937;DHT22;13733;51.178;4.450;2023-10-19T12:44:41;19.40;88.10
25937;DHT22;13733;51.178;4.450;2023-10-19T12:47:10;19.40;88.70
25937;DHT22;13733;51.178;4.450;2023-10-19T12:49:40;19.30;90.30
25937;DHT22;13733;51.178;4.450;2023-10-19T12:52:07;19.20;91.20
25937;DHT22;13733;51.178;4.450;2023-10-19T12:54:34;19.10;92.30
25937;DHT22;13733;51.178;4.450;2023-10-19T12:57:03;19.10;91.80
25937;DHT22;13733;51.178;4.450;2023-10-19T12:59:32;19.00;93.30
25937;DHT22;13733;51.178;4.450;2023-10-19T13:01:59;19.00;93.80
25937;DHT22;13733;51.178;4.450;2023-10-19T13:04:28;19.10;94.00
25937;DHT22;13733;51.178;4.450;2023-10-19T13:06:56;19.20;94.30
25937;DHT22;13733;51.178;4.450;2023-10-19T13:09:26;19.50;92.70
25937;DHT22;13733;51.178;4.450;2023-10-19T13:12:00;19.70;89.30
25937;DHT22;13733;51.178;4.450;2023-10-19T13:14:26;20.00;87.50
25937;DHT22;13733;51.178;4.450;2023-10-19T13:16:53;20.40;83.50
25937;DHT22;13733;51.178;4.450;2023-10-19T13:19:20;20.70;72.00
25937;DHT22;13733;51.178;4.450;2023-10-19T13:21:50;21.00;68.50
25937;DHT22;13733;51.178;4.450;2023-10-19T13:24:17;21.40;64.20
25937;DHT22;13733;51.178;4.450;2023-10-19T13:26:43;21.70;57.90
25937;DHT22;13733;51.178;4.450;2023-10-19T13:29:12;23.70;20.40
25937;DHT22;13733;51.178;4.450;2023-10-19T13:31:38;25.40;1.00
25937;DHT22;13733;51.178;4.450;2023-10-19T13:34:04;27.20;69.80
25937;DHT22;13733;51.178;4.450;2023-10-19T13:36:36;29.10;1.00
25937;DHT22;13733;51.178;4.450;2023-10-19T13:39:04;30.20;99.90
25937;DHT22;13733;51.178;4.450;2023-10-19T13:41:32;30.40;99.90
25937;DHT22;13733;51.178;4.450;2023-10-19T13:43:57;30.60;99.90
25937;DHT22;13733;51.178;4.450;2023-10-19T13:46:23;30.50;1.00
25937;DHT22;13733;51.178;4.450;2023-10-19T13:48:50;30.60;99.90
25937;DHT22;13733;51.178;4.450;2023-10-19T13:51:16;30.70;1.00
25937;DHT22;13733;51.178;4.450;2023-10-19T13:53:45;30.10;1.00
25937;DHT22;13733;51.178;4.450;2023-10-19T13:56:11;28.90;99.90
25937;DHT22;13733;51.178;4.450;2023-10-19T13:58:38;27.70;1.00
25937;DHT22;13733;51.178;4.450;2023-10-19T14:01:08;26.90;1.00
25937;DHT22;13733;51.178;4.450;2023-10-19T14:03:35;26.20;1.00
25937;DHT22;13733;51.178;4.450;2023-10-19T14:06:03;26.30;99.90
25937;DHT22;13733;51.178;4.450;2023-10-19T14:08:29;26.00;99.90
25937;DHT22;13733;51.178;4.450;2023-10-19T14:11:05;25.10;99.90
25937;DHT22;13733;51.178;4.450;2023-10-19T14:13:32;24.90;1.00
25937;DHT22;13733;51.178;4.450;2023-10-19T14:15:57;24.70;1.00
25937;DHT22;13733;51.178;4.450;2023-10-19T14:18:23;24.50;1.00
25937;DHT22;13733;51.178;4.450;2023-10-19T14:20:49;24.60;1.00
25937;DHT22;13733;51.178;4.450;2023-10-19T14:23:15;24.60;5.30
25937;DHT22;13733;51.178;4.450;2023-10-19T14:25:41;24.30;99.90
25937;DHT22;13733;51.178;4.450;2023-10-19T14:28:08;24.20;99.90
25937;DHT22;13733;51.178;4.450;2023-10-19T14:30:35;24.10;99.90
25937;DHT22;13733;51.178;4.450;2023-10-19T14:33:01;24.00;99.90
25937;DHT22;13733;51.178;4.450;2023-10-19T14:35:28;23.90;99.90
25937;DHT22;13733;51.178;4.450;2023-10-19T14:37:55;23.80;99.90
25937;DHT22;13733;51.178;4.450;2023-10-19T14:40:23;23.60;99.90
25937;DHT22;13733;51.178;4.450;2023-10-19T14:42:51;23.30;99.90
25937;DHT22;13733;51.178;4.450;2023-10-19T14:45:20;23.10;1.00
25937;DHT22;13733;51.178;4.450;2023-10-19T14:47:48;22.90;1.00
25937;DHT22;13733;51.178;4.450;2023-10-19T14:50:15;22.70;1.00
25937;DHT22;13733;51.178;4.450;2023-10-19T14:52:41;23.30;1.00
25937;DHT22;13733;51.178;4.450;2023-10-19T14:55:08;24.90;1.00
25937;DHT22;13733;51.178;4.450;2023-10-19T14:57:35;26.40;99.90
25937;DHT22;13733;51.178;4.450;2023-10-19T15:00:07;28.10;99.90
25937;DHT22;13733;51.178;4.450;2023-10-19T15:02:55;28.90;1.00
25937;DHT22;13733;51.178;4.450;2023-10-19T15:05:23;29.50;99.90
25937;DHT22;13733;51.178;4.450;2023-10-19T15:07:51;28.80;99.90
25937;DHT22;13733;51.178;4.450;2023-10-19T15:10:18;28.70;99.90
25937;DHT22;13733;51.178;4.450;2023-10-19T15:12:44;28.00;99.90
25937;DHT22;13733;51.178;4.450;2023-10-19T15:15:11;28.50;99.90
25937;DHT22;13733;51.178;4.450;2023-10-19T15:17:40;29.00;99.90
25937;DHT22;13733;51.178;4.450;2023-10-19T15:20:07;29.90;38.80
25937;DHT22;13733;51.178;4.450;2023-10-19T15:22:34;30.40;1.00
25937;DHT22;13733;51.178;4.450;2023-10-19T15:25:00;30.30;1.00
25937;DHT22;13733;51.178;4.450;2023-10-19T15:27:26;30.90;99.90
25937;DHT22;13733;51.178;4.450;2023-10-19T15:29:55;31.10;99.90
25937;DHT22;13733;51.178;4.450;2023-10-19T15:32:23;30.40;99.90
25937;DHT22;13733;51.178;4.450;2023-10-19T15:34:50;29.50;99.90
25937;DHT22;13733;51.178;4.450;2023-10-19T15:37:16;28.20;1.00
25937;DHT22;13733;51.178;4.450;2023-10-19T15:39:42;27.20;99.90
25937;DHT22;13733;51.178;4.450;2023-10-19T15:42:10;26.30;1.00
25937;DHT22;13733;51.178;4.450;2023-10-19T15:44:38;25.50;1.00
25937;DHT22;13733;51.178;4.450;2023-10-19T15:47:04;24.70;99.90
25937;DHT22;13733;51.178;4.450;2023-10-19T15:49:36;24.10;99.90
25937;DHT22;13733;51.178;4.450;2023-10-19T15:52:03;23.60;1.00
25937;DHT22;13733;51.178;4.450;2023-10-19T15:54:29;22.90;99.90